createdAt,value
2022-10-01T00:03:45.266Z,101796.06
2022-10-01T00:08:49.900Z,101803.84
2022-10-01T00:13:53.895Z,101801.84
2022-10-01T00:18:58.341Z,101802.97
2022-10-01T00:24:04.956Z,101809.03
2022-10-01T00:29:11.276Z,101799.06
2022-10-01T00:34:15.816Z,101818.47
2022-10-01T00:39:18.536Z,101821.88
2022-10-01T00:44:32.664Z,101818.59
2022-10-01T00:49:37.397Z,101824.53
2022-10-01T00:55:06.054Z,101831.97
2022-10-01T01:00:10.515Z,101838.88
2022-10-01T01:05:13.843Z,101830.56
2022-10-01T01:10:27.303Z,101846.56
2022-10-01T01:15:42.286Z,101842.16
2022-10-01T01:21:17.000Z,101852.88
2022-10-01T01:26:42.709Z,101855.00
2022-10-01T01:31:46.774Z,101862.94
2022-10-01T01:36:56.237Z,101863.06
2022-10-01T01:42:04.089Z,101881.50
2022-10-01T01:47:07.851Z,101884.28
2022-10-01T01:52:13.741Z,101881.75
2022-10-01T01:57:20.584Z,101898.75
2022-10-01T02:02:30.283Z,101900.13
2022-10-01T02:07:33.031Z,101888.03
2022-10-01T02:13:08.663Z,101915.91
2022-10-01T02:18:17.043Z,101922.19
2022-10-01T02:23:26.405Z,101918.50
2022-10-01T02:28:29.865Z,101933.13
2022-10-01T02:33:37.131Z,101936.56
2022-10-01T02:38:42.644Z,101947.94
2022-10-01T02:44:06.377Z,101954.78
2022-10-01T02:49:09.470Z,101952.75
2022-10-01T02:54:18.394Z,101942.47
2022-10-01T02:59:22.861Z,101960.25
2022-10-01T03:04:25.555Z,101966.75
2022-10-01T03:09:28.275Z,101968.38
2022-10-01T03:14:32.695Z,101971.47
2022-10-01T03:19:35.423Z,101974.47
2022-10-01T03:24:38.194Z,101987.88
2022-10-01T03:29:40.903Z,101972.25
2022-10-01T03:34:43.712Z,101990.34
2022-10-01T03:39:46.463Z,101996.94
2022-10-01T03:44:49.180Z,101995.09
2022-10-01T03:49:52.094Z,102003.81
2022-10-01T03:54:54.775Z,101995.28
2022-10-01T03:59:57.421Z,102010.03
2022-10-01T04:05:00.122Z,102010.44
2022-10-01T04:10:02.817Z,102008.81
2022-10-01T04:15:06.217Z,102010.00
2022-10-01T04:20:09.023Z,102020.44
2022-10-01T04:25:12.425Z,102016.69
2022-10-01T04:30:15.145Z,102024.63
2022-10-01T04:35:18.106Z,102012.63
2022-10-01T04:40:20.784Z,102019.19
2022-10-01T04:45:23.879Z,102016.16
2022-10-01T04:50:27.671Z,102015.09
2022-10-01T04:55:30.391Z,102016.81
2022-10-01T05:00:33.135Z,102025.91
2022-10-01T05:05:35.918Z,102024.59
2022-10-01T05:10:38.897Z,102025.59
2022-10-01T05:15:41.755Z,102032.50
2022-10-01T05:20:44.517Z,102023.53
2022-10-01T05:25:47.364Z,102029.78
2022-10-01T05:30:51.377Z,102033.47
2022-10-01T05:35:54.165Z,102024.00
2022-10-01T05:40:56.930Z,102034.81
2022-10-01T05:46:03.660Z,102034.13
2022-10-01T05:51:08.536Z,102026.47
2022-10-01T05:56:11.879Z,102031.44
2022-10-01T06:01:14.961Z,102031.47
2022-10-01T06:06:24.524Z,102038.56
2022-10-01T06:11:27.917Z,102034.69
2022-10-01T06:16:32.107Z,102050.47
2022-10-01T06:21:36.248Z,102042.41
2022-10-01T06:26:39.276Z,102046.28
2022-10-01T06:31:42.159Z,102060.03
2022-10-01T06:36:44.859Z,102050.56
2022-10-01T06:41:50.223Z,102062.44
2022-10-01T06:46:53.249Z,102053.88
2022-10-01T06:52:14.164Z,102056.41
2022-10-01T06:57:16.903Z,102070.41
2022-10-01T07:02:29.182Z,102075.91
2022-10-01T07:07:33.606Z,102073.28
2022-10-01T07:12:37.665Z,102055.84
2022-10-01T07:17:45.298Z,102066.81
2022-10-01T07:22:50.010Z,102064.00
2022-10-01T07:28:00.947Z,102066.34
2022-10-01T07:33:03.974Z,102059.56
2022-10-01T07:38:07.781Z,102063.50
2022-10-01T07:43:10.597Z,102063.91
2022-10-01T07:48:15.414Z,102058.81
2022-10-01T07:53:18.276Z,102061.69
2022-10-01T07:58:24.412Z,102064.69
2022-10-01T08:03:27.219Z,102061.13
2022-10-01T08:08:31.561Z,102063.13
2022-10-01T08:13:35.411Z,102061.31
2022-10-01T08:18:38.640Z,102067.75
2022-10-01T08:23:41.285Z,102077.16
2022-10-01T08:28:44.007Z,102085.41
2022-10-01T08:33:46.726Z,102072.84
2022-10-01T08:38:49.870Z,102078.47
2022-10-01T08:43:52.945Z,102089.50
2022-10-01T08:49:21.042Z,102094.38
2022-10-01T08:54:28.823Z,102096.00
2022-10-01T08:59:55.197Z,102107.84
2022-10-01T09:05:01.733Z,102113.28
2022-10-01T09:10:26.052Z,102117.72
2022-10-01T09:15:45.854Z,102126.56
2022-10-01T09:20:53.992Z,102135.16
2022-10-01T09:25:58.622Z,102132.84
2022-10-01T09:31:12.048Z,102141.03
2022-10-01T09:36:24.006Z,102140.75
2022-10-01T09:41:27.013Z,102145.81
2022-10-01T09:46:29.760Z,102151.63
2022-10-01T09:51:47.653Z,102142.09
2022-10-01T09:56:58.963Z,102148.25
2022-10-01T10:02:02.916Z,102140.06
2022-10-01T10:07:06.418Z,102154.19
2022-10-01T10:12:26.312Z,102163.16
2022-10-01T10:17:29.008Z,102143.59
2022-10-01T10:22:31.704Z,102162.91
2022-10-01T10:27:36.651Z,102166.31
2022-10-01T10:32:39.328Z,102177.34
2022-10-01T10:37:51.126Z,102185.28
2022-10-01T10:42:55.428Z,102185.41
2022-10-01T10:47:58.470Z,102170.41
2022-10-01T10:53:25.036Z,102182.97
2022-10-01T10:58:33.601Z,102181.88
2022-10-01T11:03:38.787Z,102162.69
2022-10-01T11:08:42.730Z,102182.75
2022-10-01T11:14:10.928Z,102204.81
2022-10-01T11:19:18.673Z,102213.22
2022-10-01T11:24:27.161Z,102210.44
2022-10-01T11:29:32.632Z,102212.06
2022-10-01T11:34:49.942Z,102224.59
2022-10-01T11:39:56.065Z,102197.81
2022-10-01T11:45:08.040Z,102232.91
2022-10-01T11:50:25.615Z,102235.88
2022-10-01T11:55:51.592Z,102240.91
2022-10-01T12:01:16.975Z,102251.56
2022-10-01T12:06:54.146Z,102252.75
2022-10-01T12:12:07.133Z,102252.91
2022-10-01T12:17:19.914Z,102270.13
2022-10-01T12:22:26.790Z,102268.75
2022-10-01T12:27:40.432Z,102266.00
2022-10-01T12:33:01.605Z,102288.31
2022-10-01T12:38:14.139Z,102289.22
2022-10-01T12:43:36.324Z,102293.69
2022-10-01T12:48:48.778Z,102295.72
2022-10-01T12:54:03.416Z,102300.78
2022-10-01T12:59:25.299Z,102268.56
2022-10-01T13:05:00.285Z,102305.72
2022-10-01T13:10:21.984Z,102301.06
2022-10-01T13:15:29.173Z,102310.81
2022-10-01T13:20:44.298Z,102306.50
2022-10-01T13:25:59.548Z,102316.00
2022-10-01T13:31:11.814Z,102322.81
2022-10-01T13:36:17.228Z,102325.31
2022-10-01T13:41:22.582Z,102319.53
2022-10-01T13:46:31.581Z,102317.50
2022-10-01T13:51:36.353Z,102343.81
2022-10-01T13:56:39.134Z,102345.44
2022-10-01T14:01:42.615Z,102346.84
2022-10-01T14:06:57.849Z,102352.66
2022-10-01T14:12:22.026Z,102355.44
2022-10-01T14:17:32.532Z,102368.97
2022-10-01T14:22:53.751Z,102368.59
2022-10-01T14:28:17.911Z,102369.31
2022-10-01T14:33:42.996Z,102380.47
2022-10-01T14:38:45.824Z,102365.78
2022-10-01T14:43:49.172Z,102353.91
2022-10-01T14:49:01.902Z,102367.28
2022-10-01T14:54:04.628Z,102380.72
2022-10-01T14:59:09.853Z,102383.34
2022-10-01T15:04:22.280Z,102388.88
2022-10-01T15:09:25.054Z,102392.50
2022-10-01T15:14:28.392Z,102396.38
2022-10-01T15:19:31.581Z,102391.75
2022-10-01T15:24:39.750Z,102398.94
2022-10-01T15:29:43.236Z,102405.00
2022-10-01T15:34:52.409Z,102401.94
2022-10-01T15:39:55.970Z,102409.22
2022-10-01T15:45:07.697Z,102406.03
2022-10-01T15:50:10.463Z,102414.97
2022-10-01T15:55:17.686Z,102418.59
2022-10-01T16:00:26.460Z,102421.88
2022-10-01T16:05:33.643Z,102419.22
2022-10-01T16:10:41.352Z,102406.25
2022-10-01T16:15:44.365Z,102420.94
2022-10-01T16:20:56.963Z,102419.91
2022-10-01T16:25:59.726Z,102423.16
2022-10-01T16:31:04.814Z,102420.16
2022-10-01T16:36:08.636Z,102420.97
2022-10-01T16:41:12.514Z,102425.00
2022-10-01T16:46:15.264Z,102425.53
2022-10-01T16:51:19.322Z,102433.53
2022-10-01T16:56:26.883Z,102435.44
2022-10-01T17:01:31.502Z,102402.78
2022-10-01T17:06:34.746Z,102436.41
2022-10-01T17:11:39.217Z,102426.94
2022-10-01T17:16:42.424Z,102432.31
2022-10-01T17:21:45.580Z,102433.47
2022-10-01T17:26:48.586Z,102437.03
2022-10-01T17:31:53.621Z,102420.09
2022-10-01T17:36:56.561Z,102440.75
2022-10-01T17:41:59.254Z,102424.16
2022-10-01T17:47:01.991Z,102448.06
2022-10-01T17:52:06.102Z,102437.91
2022-10-01T17:57:11.269Z,102443.75
2022-10-01T18:02:39.615Z,102444.09
2022-10-01T18:07:37.733Z,102443.50
2022-10-01T18:12:40.688Z,102453.19
2022-10-01T18:17:51.061Z,102458.78
2022-10-01T18:22:54.284Z,102457.03
2022-10-01T18:27:57.047Z,102464.75
2022-10-01T18:33:01.823Z,102463.06
2022-10-01T18:38:22.009Z,102462.41
2022-10-01T18:43:26.102Z,102463.78
2022-10-01T18:48:41.418Z,102464.41
2022-10-01T18:53:50.130Z,102470.66
2022-10-01T18:59:23.727Z,102469.78
2022-10-01T19:04:41.616Z,102475.56
2022-10-01T19:10:19.219Z,102473.19
2022-10-01T19:15:39.784Z,102483.72
2022-10-01T19:21:03.146Z,102489.88
2022-10-01T19:26:12.030Z,102486.81
2022-10-01T19:31:33.349Z,102487.56
2022-10-01T19:36:39.666Z,102479.72
2022-10-01T19:41:48.306Z,102490.88
2022-10-01T19:46:52.073Z,102490.81
2022-10-01T19:52:02.024Z,102491.06
2022-10-01T19:57:13.720Z,102482.06
2022-10-01T20:02:39.388Z,102492.97
2022-10-01T20:07:59.358Z,102487.47
2022-10-01T20:13:23.660Z,102494.50
2022-10-01T20:19:23.619Z,102498.72
2022-10-01T20:24:45.035Z,102490.22
2022-10-01T20:30:07.430Z,102495.28
2022-10-01T20:35:30.678Z,102499.09
2022-10-01T20:40:56.083Z,102502.38
2022-10-01T20:46:03.347Z,102511.53
2022-10-01T20:51:11.029Z,102518.28
2022-10-01T20:56:45.822Z,102512.28
2022-10-01T21:02:02.826Z,102502.25
2022-10-01T21:07:25.832Z,102509.34
2022-10-01T21:12:42.850Z,102519.88
2022-10-01T21:17:58.236Z,102518.16
2022-10-01T21:23:27.997Z,102527.00
2022-10-01T21:28:52.248Z,102531.88
2022-10-01T21:34:28.941Z,102533.38
2022-10-01T21:39:34.231Z,102539.81
2022-10-01T21:44:49.000Z,102539.06
2022-10-01T21:49:54.484Z,102543.16
2022-10-01T21:55:15.190Z,102539.81
2022-10-01T22:00:23.449Z,102535.56
2022-10-01T22:06:10.267Z,102534.81
2022-10-01T22:11:18.113Z,102549.84
2022-10-01T22:16:22.493Z,102550.59
2022-10-01T22:21:26.494Z,102554.16
2022-10-01T22:26:31.562Z,102562.22
2022-10-01T22:31:36.179Z,102552.81
2022-10-01T22:36:56.983Z,102562.78
2022-10-01T22:42:17.005Z,102570.84
2022-10-01T22:47:46.281Z,102569.63
2022-10-01T22:53:13.321Z,102565.00
2022-10-01T22:58:33.397Z,102563.94
2022-10-01T23:04:13.325Z,102568.56
2022-10-01T23:09:20.244Z,102565.19
2022-10-01T23:14:38.430Z,102582.75
2022-10-01T23:20:11.705Z,102577.31
2022-10-01T23:25:14.377Z,102578.28
2022-10-01T23:30:18.608Z,102581.19
2022-10-01T23:35:23.401Z,102574.78
2022-10-01T23:40:35.378Z,102575.19
2022-10-01T23:45:40.475Z,102573.06
2022-10-01T23:51:05.677Z,102580.84
2022-10-01T23:56:29.648Z,102584.44
